Martin, Utah
Current Conditions -  °F | °C
As of 4:53 PM on Monday 20 Oct 2014 (Local Time) from KPUC Reporting Station
Clear Clear  
Wind Chill: 68°   Ceiling: Unl
Heat Index: 68°   Visibility: 10mi
Dew Point: 35°   Wind: 5mph
Humidity: 30%   Direction: NA
Pressure: 30.1"   Gusts: NA
Location:  39.7304°N, 110.917°W
Report Text: KPUC 202253Z AUTO VRB04KT 10SM CLR 20/02 A3010 RMK AO2 SLP149 T02000017 TSNO
Loading
Personal Weather Stations






























Interactive Weather Map
Tropical Storm Tracking
New forecast layout! Learn more

10-Day Weather Forecast

Advertisements
Track Severe Weather on mobile